EHGR/GLZ METAR and TAF weather

Enter ICAO airport designator
Station Type Date Time Source
EHGR METAR 2019/02/23 16:55 UTC NOAA

EHGR 231655Z AUTO 11004KT 9999 NCD 11/03 Q1035 BLU


Station Type Date Time Source
EHGR Decoded METAR 2019/02/23 16:55 UTC NOAA

Gilze-Rijen, Netherlands (EHGR) 51-34N 004-56E 24M
Feb 23, 2019 - 11:55 AM EST / 2019.02.23 1655 UTC
Wind: from the ESE (110 degrees) at 5 MPH (4 KT):0
Visibility: greater than 7 mile(s):0
Temperature: 51 F (11 C)
Dew Point: 37 F (3 C)
Relative Humidity: 57%
Pressure (altimeter): 30.56 in. Hg (1035 hPa)
ob: EHGR 231655Z AUTO 11004KT 9999 NCD 11/03 Q1035 BLU
cycle: 17

Station Type Date Time Source
EHGR TAF 2019/02/22 10:42 UTC NOAA

TAF TAF EHGR 220906Z 2210/2222 VRB02KT 6000 OVC022
TEMPO 2210/2212 SCT006
BECMG 2211/2213 09004KT


Example: see airport list